Time;durP1;ratioP1;P1;durP2;ratioP2;P2;SDS_P1;SDS_P2;PMS_P1;PMS_P2;Temp;Humidity;BMP_temperature;BMP_pressure;BME280_temperature;BME280_humidity;BME280_pressure;Samples;Min_cycle;Max_cycle;Signal;HPM_P1;HPM_P2
2021/09/25 00:01:35;;;;;;;1.07;1.07;;;18.20;81.10;;;;;;5057307;28;20599;-71
2021/09/25 00:04:02;;;;;;;2.47;2.07;;;18.20;81.20;;;;;;5057283;28;20218;-71
2021/09/25 00:06:30;;;;;;;0.57;0.57;;;18.20;81.20;;;;;;5055331;28;20564;-71
2021/09/25 00:08:57;;;;;;;2.23;1.53;;;18.20;81.20;;;;;;5055170;28;20235;-71
2021/09/25 00:11:26;;;;;;;3.30;1.73;;;18.20;81.30;;;;;;5056226;28;20293;-71
2021/09/25 00:13:53;;;;;;;1.33;0.80;;;18.10;81.30;;;;;;5055948;28;20221;-71
2021/09/25 00:16:25;;;;;;;1.23;1.13;;;18.10;81.30;;;;;;5054458;28;20202;-71
2021/09/25 00:18:54;;;;;;;2.20;0.43;;;18.10;81.30;;;;;;5056413;28;20224;-71
2021/09/25 00:21:21;;;;;;;0.40;0.40;;;18.00;81.20;;;;;;5037587;28;20225;-71
2021/09/25 00:23:48;;;;;;;0.50;0.50;;;18.00;81.10;;;;;;5057058;28;20279;-71
2021/09/25 00:26:15;;;;;;;3.10;1.60;;;17.90;81.20;;;;;;5055484;28;20249;-71
2021/09/25 00:28:42;;;;;;;0.70;0.70;;;17.80;81.30;;;;;;5055913;28;20561;-71
2021/09/25 00:31:09;;;;;;;1.13;1.13;;;17.70;81.30;;;;;;5037155;28;20210;-71
2021/09/25 00:33:36;;;;;;;0.63;0.63;;;17.70;81.60;;;;;;5054941;28;20206;-71
2021/09/25 00:36:03;;;;;;;2.83;1.30;;;17.70;81.70;;;;;;5055058;28;20264;-71
2021/09/25 00:38:31;;;;;;;0.67;0.67;;;17.70;81.70;;;;;;5055401;28;20206;-71
2021/09/25 00:40:59;;;;;;;0.80;0.80;;;17.70;81.50;;;;;;5054962;28;20214;-71
2021/09/25 00:43:25;;;;;;;3.67;1.43;;;17.60;81.30;;;;;;5056065;28;20245;-71
2021/09/25 00:45:53;;;;;;;3.80;1.63;;;17.60;81.10;;;;;;5037809;28;20639;-71
2021/09/25 00:48:20;;;;;;;3.70;1.00;;;17.60;81.00;;;;;;5036107;28;20262;-71
2021/09/25 00:50:47;;;;;;;0.57;0.57;;;17.50;80.90;;;;;;5034571;28;20265;-71
2021/09/25 00:53:14;;;;;;;1.07;1.00;;;17.50;80.90;;;;;;5036640;28;20211;-71
2021/09/25 00:55:41;;;;;;;1.03;0.80;;;17.40;81.00;;;;;;5034611;28;20691;-71
2021/09/25 00:58:09;;;;;;;0.77;0.57;;;17.40;81.10;;;;;;5036147;28;20265;-71
2021/09/25 01:00:37;;;;;;;0.77;0.77;;;17.40;81.20;;;;;;5033941;28;20222;-71
2021/09/25 01:03:04;;;;;;;1.07;1.07;;;17.40;81.50;;;;;;5018729;28;20614;-71
2021/09/25 01:05:33;;;;;;;1.23;1.13;;;17.30;81.60;;;;;;5034053;28;20403;-71
2021/09/25 01:08:00;;;;;;;3.60;1.27;;;17.30;81.90;;;;;;5034879;28;20218;-71
2021/09/25 01:10:28;;;;;;;1.00;1.00;;;17.20;81.90;;;;;;5035165;28;20222;-71
2021/09/25 01:12:55;;;;;;;3.40;1.37;;;17.20;81.90;;;;;;5035621;28;20203;-71
2021/09/25 01:15:22;;;;;;;0.70;0.70;;;17.20;81.90;;;;;;5035395;28;20640;-71
2021/09/25 01:17:49;;;;;;;3.50;2.33;;;17.20;81.90;;;;;;5035620;28;20596;-71
2021/09/25 01:20:17;;;;;;;0.90;0.77;;;17.10;82.00;;;;;;5034726;28;20221;-71
2021/09/25 01:22:44;;;;;;;0.50;0.50;;;17.10;82.10;;;;;;5020330;28;20614;-71
2021/09/25 01:25:11;;;;;;;1.00;1.00;;;17.10;82.10;;;;;;5038098;28;20215;-71
2021/09/25 01:27:40;;;;;;;3.40;1.80;;;17.10;82.30;;;;;;5036568;28;20243;-71
2021/09/25 01:30:12;;;;;;;1.17;0.73;;;17.10;82.30;;;;;;5037008;28;20254;-71
2021/09/25 01:32:40;;;;;;;1.03;0.93;;;17.10;82.40;;;;;;5036519;28;20214;-71
2021/09/25 01:35:09;;;;;;;1.47;1.30;;;17.10;82.40;;;;;;5034343;28;20276;-71
2021/09/25 01:37:36;;;;;;;2.47;1.53;;;17.10;82.40;;;;;;5000773;28;20219;-71
2021/09/25 01:40:06;;;;;;;1.10;1.03;;;17.10;82.40;;;;;;5018280;28;20219;-71
2021/09/25 01:42:34;;;;;;;0.80;0.80;;;17.10;82.20;;;;;;4999644;28;20211;-71
2021/09/25 01:45:01;;;;;;;1.17;1.07;;;17.10;82.10;;;;;;5018123;28;20216;-71
2021/09/25 01:47:28;;;;;;;1.93;1.80;;;17.00;82.00;;;;;;5029535;28;20243;-71
2021/09/25 01:50:00;;;;;;;1.70;1.60;;;17.00;81.90;;;;;;5020749;28;20226;-71
2021/09/25 01:52:28;;;;;;;1.43;1.37;;;17.00;81.90;;;;;;5020057;28;20218;-71
2021/09/25 01:54:56;;;;;;;0.70;0.70;;;16.90;81.90;;;;;;5020188;28;20211;-71
2021/09/25 01:57:23;;;;;;;3.60;0.70;;;16.90;82.10;;;;;;5037577;28;20534;-71
2021/09/25 01:59:50;;;;;;;2.63;1.90;;;16.90;82.20;;;;;;5037387;28;20219;-71
2021/09/25 02:02:18;;;;;;;4.83;1.80;;;16.80;82.60;;;;;;5037170;28;20226;-71
2021/09/25 02:04:48;;;;;;;1.43;1.03;;;16.80;82.30;;;;;;5020049;28;20203;-71
2021/09/25 02:07:19;;;;;;;0.40;0.40;;;16.70;82.20;;;;;;5037061;28;20274;-71
2021/09/25 02:09:47;;;;;;;3.30;1.40;;;16.60;82.30;;;;;;5035240;28;20248;-71
2021/09/25 02:12:14;;;;;;;0.83;0.73;;;16.60;82.50;;;;;;5017201;28;20555;-71
2021/09/25 02:14:41;;;;;;;0.63;0.63;;;16.60;82.50;;;;;;5033462;28;20213;-71
2021/09/25 02:17:08;;;;;;;1.17;1.17;;;16.60;82.40;;;;;;5034371;28;20218;-71
2021/09/25 02:19:35;;;;;;;1.00;0.97;;;16.60;82.60;;;;;;5034041;28;20210;-71
2021/09/25 02:22:02;;;;;;;1.03;1.03;;;16.60;82.70;;;;;;5034199;28;20211;-71
2021/09/25 02:24:29;;;;;;;1.30;1.03;;;16.50;82.90;;;;;;5034430;28;20211;-71
2021/09/25 02:26:56;;;;;;;0.97;0.97;;;16.50;83.20;;;;;;5033628;28;20693;-71
2021/09/25 02:29:23;;;;;;;1.07;1.03;;;16.40;83.30;;;;;;5033005;28;20715;-71
2021/09/25 02:31:51;;;;;;;0.97;0.97;;;16.40;83.50;;;;;;5032865;28;20211;-71
2021/09/25 02:34:18;;;;;;;2.50;1.90;;;16.50;84.40;;;;;;5032394;28;20628;-71
2021/09/25 02:36:45;;;;;;;1.57;1.47;;;16.50;84.50;;;;;;5032180;28;20350;-71
2021/09/25 02:39:12;;;;;;;0.67;0.67;;;16.60;84.30;;;;;;5015443;28;20272;-71
2021/09/25 02:41:39;;;;;;;8.23;2.27;;;16.60;84.10;;;;;;5034464;28;20289;-71
2021/09/25 02:44:06;;;;;;;1.90;1.33;;;16.60;84.00;;;;;;5018853;28;20495;-71
2021/09/25 02:46:33;;;;;;;2.40;2.20;;;16.50;83.80;;;;;;5037239;28;20625;-71
2021/09/25 02:49:00;;;;;;;3.63;1.03;;;16.50;83.70;;;;;;5037147;28;20187;-71
2021/09/25 02:51:27;;;;;;;1.20;1.10;;;16.50;83.60;;;;;;5036332;28;20234;-71
2021/09/25 02:53:55;;;;;;;0.77;0.77;;;16.50;83.50;;;;;;5034740;28;20249;-71
2021/09/25 02:56:22;;;;;;;1.43;1.33;;;16.40;83.10;;;;;;5029519;28;20222;-71
2021/09/25 02:58:49;;;;;;;0.83;0.83;;;16.40;83.00;;;;;;5023868;28;20273;-71
2021/09/25 03:01:16;;;;;;;2.03;1.93;;;16.30;82.80;;;;;;5017078;28;20285;-71
2021/09/25 03:03:43;;;;;;;2.70;1.23;;;16.30;82.80;;;;;;5018152;28;20203;-71
2021/09/25 03:06:10;;;;;;;0.73;0.73;;;16.30;82.70;;;;;;5037283;28;20214;-71
2021/09/25 03:08:37;;;;;;;0.97;0.97;;;16.20;82.60;;;;;;5019125;28;20656;-71
2021/09/25 03:11:04;;;;;;;3.30;1.70;;;16.20;82.70;;;;;;5026547;28;20297;-71
2021/09/25 03:13:32;;;;;;;2.23;2.03;;;16.20;82.80;;;;;;5017214;28;20219;-71
2021/09/25 03:16:00;;;;;;;1.03;1.03;;;16.10;82.70;;;;;;5017319;28;20234;-71
2021/09/25 03:18:27;;;;;;;0.30;0.30;;;16.10;82.80;;;;;;5017412;28;20706;-71
2021/09/25 03:20:54;;;;;;;0.70;0.70;;;16.10;82.80;;;;;;5016437;28;20223;-71
2021/09/25 03:23:21;;;;;;;3.13;2.13;;;16.10;82.80;;;;;;5026781;28;20226;-71
2021/09/25 03:25:48;;;;;;;2.47;0.50;;;16.00;82.80;;;;;;5036963;28;20646;-71
2021/09/25 03:28:15;;;;;;;1.83;1.10;;;16.10;82.80;;;;;;5036590;28;20250;-71
2021/09/25 03:30:42;;;;;;;1.87;1.70;;;16.10;82.70;;;;;;5036778;28;20242;-71
2021/09/25 03:33:10;;;;;;;0.47;0.43;;;16.00;82.70;;;;;;5036660;28;20211;-71
2021/09/25 03:35:37;;;;;;;0.63;0.63;;;16.00;82.80;;;;;;5035820;28;20211;-71
2021/09/25 03:38:04;;;;;;;2.30;1.70;;;16.00;82.80;;;;;;5016798;28;20207;-71
2021/09/25 03:40:31;;;;;;;7.80;2.17;;;16.00;82.80;;;;;;5002062;28;20212;-71
2021/09/25 03:42:58;;;;;;;2.67;1.80;;;15.90;82.80;;;;;;5016825;28;20224;-71
2021/09/25 03:45:25;;;;;;;0.87;0.87;;;15.90;82.90;;;;;;5016541;28;20719;-71
2021/09/25 03:47:57;;;;;;;1.77;1.67;;;15.90;82.90;;;;;;5015402;28;20246;-71
2021/09/25 03:50:24;;;;;;;1.43;1.33;;;15.90;82.90;;;;;;5018743;28;20231;-71
2021/09/25 03:52:52;;;;;;;0.87;0.87;;;15.90;83.00;;;;;;5024395;28;20217;-71
2021/09/25 03:55:19;;;;;;;2.23;1.80;;;15.90;83.10;;;;;;5056128;28;20210;-71
2021/09/25 03:57:46;;;;;;;1.40;1.07;;;15.90;83.20;;;;;;5055858;28;20215;-71
2021/09/25 04:00:13;;;;;;;14.97;1.00;;;15.90;83.30;;;;;;5055837;28;20287;-71
2021/09/25 04:02:40;;;;;;;2.03;1.03;;;15.90;83.50;;;;;;5055805;28;20217;-71
2021/09/25 04:05:08;;;;;;;4.60;2.20;;;15.90;83.60;;;;;;5055361;28;20923;-71
2021/09/25 04:07:35;;;;;;;2.97;2.73;;;15.90;83.60;;;;;;5037986;28;20237;-71
2021/09/25 04:10:03;;;;;;;1.37;1.37;;;15.90;83.60;;;;;;5055278;28;20230;-71
2021/09/25 04:12:30;;;;;;;3.97;1.93;;;15.90;83.60;;;;;;5055172;28;20202;-71
2021/09/25 04:14:57;;;;;;;0.50;0.50;;;15.90;83.60;;;;;;5055400;28;20716;-71
2021/09/25 04:17:24;;;;;;;0.70;0.70;;;15.90;83.60;;;;;;5054589;28;20202;-71
2021/09/25 04:19:51;;;;;;;0.30;0.30;;;15.80;83.50;;;;;;5038328;28;20607;-71
2021/09/25 04:22:18;;;;;;;1.30;1.10;;;15.90;83.60;;;;;;5054740;28;20654;-71
2021/09/25 04:24:45;;;;;;;0.30;0.30;;;15.90;83.70;;;;;;5055923;28;20214;-71
2021/09/25 04:27:12;;;;;;;1.30;1.30;;;15.80;83.80;;;;;;5038174;28;20217;-71
2021/09/25 04:29:40;;;;;;;0.80;0.70;;;15.80;83.80;;;;;;5054869;28;20635;-71
2021/09/25 04:32:07;;;;;;;0.63;0.63;;;15.80;83.80;;;;;;5055073;28;20225;-71
2021/09/25 04:34:34;;;;;;;1.10;0.83;;;15.90;83.70;;;;;;5055670;28;20653;-71
2021/09/25 04:37:01;;;;;;;3.10;2.37;;;15.90;83.70;;;;;;5055487;28;20210;-71
2021/09/25 04:39:28;;;;;;;3.80;1.83;;;15.90;83.50;;;;;;5038361;28;20272;-71
2021/09/25 04:41:55;;;;;;;1.37;1.27;;;15.80;83.30;;;;;;5055327;28;20535;-71
2021/09/25 04:44:22;;;;;;;1.03;1.03;;;15.80;83.30;;;;;;5055375;28;20210;-71
2021/09/25 04:46:49;;;;;;;1.77;0.93;;;15.80;83.30;;;;;;5047438;28;20258;-71
2021/09/25 04:49:16;;;;;;;2.13;1.40;;;15.80;83.50;;;;;;5034925;28;20246;-71
2021/09/25 04:51:44;;;;;;;2.57;2.37;;;15.80;83.60;;;;;;5034865;28;20231;-71
2021/09/25 04:54:10;;;;;;;2.27;2.07;;;15.90;83.90;;;;;;5034837;28;20671;-71
2021/09/25 04:56:37;;;;;;;1.27;1.17;;;15.90;84.10;;;;;;5035056;28;20215;-71
2021/09/25 04:59:04;;;;;;;1.67;1.53;;;15.90;84.30;;;;;;5035176;28;20608;-71
2021/09/25 05:01:32;;;;;;;2.33;1.53;;;15.90;84.50;;;;;;5034346;28;20215;-71
2021/09/25 05:04:02;;;;;;;1.20;0.80;;;15.90;84.50;;;;;;5036358;28;20593;-72
2021/09/25 05:06:30;;;;;;;2.53;2.33;;;15.90;84.60;;;;;;5033607;28;20217;-72
2021/09/25 05:08:57;;;;;;;3.10;2.83;;;15.90;84.70;;;;;;5034141;28;20214;-71
2021/09/25 05:11:25;;;;;;;1.17;1.07;;;15.90;84.90;;;;;;5035453;28;20227;-71
2021/09/25 05:13:52;;;;;;;1.07;0.43;;;15.90;84.80;;;;;;5017292;28;20222;-71
2021/09/25 05:16:20;;;;;;;2.20;0.93;;;15.90;84.70;;;;;;5035976;28;20525;-71
2021/09/25 05:18:47;;;;;;;1.40;1.40;;;15.90;84.70;;;;;;5035792;28;20211;-71
2021/09/25 05:21:14;;;;;;;2.07;0.97;;;15.80;84.70;;;;;;5035102;28;20268;-71
2021/09/25 05:23:41;;;;;;;4.50;1.83;;;15.80;84.80;;;;;;5035221;28;20226;-71
2021/09/25 05:26:09;;;;;;;5.37;2.37;;;15.90;84.90;;;;;;5034958;28;20214;-71
2021/09/25 05:28:36;;;;;;;0.63;0.63;;;15.90;84.90;;;;;;5034973;28;20226;-71
2021/09/25 05:31:03;;;;;;;1.53;1.43;;;15.90;85.10;;;;;;5033990;28;20223;-71
2021/09/25 05:33:30;;;;;;;7.63;3.57;;;15.90;85.30;;;;;;5022977;28;20686;-71
2021/09/25 05:35:57;;;;;;;1.43;0.83;;;16.00;85.30;;;;;;5012947;28;20207;-71
2021/09/25 05:38:25;;;;;;;5.57;1.33;;;16.00;85.20;;;;;;5016438;28;20196;-71
2021/09/25 05:40:52;;;;;;;6.90;2.73;;;16.00;85.00;;;;;;4995902;28;20207;-71
2021/09/25 05:43:19;;;;;;;1.13;1.13;;;16.00;85.20;;;;;;5012391;28;20215;-71
2021/09/25 05:45:46;;;;;;;3.07;2.40;;;16.10;85.40;;;;;;5010696;28;20608;-71
2021/09/25 05:48:13;;;;;;;1.43;1.13;;;16.20;85.50;;;;;;5011918;28;20246;-71
2021/09/25 05:50:43;;;;;;;0.97;0.77;;;16.30;85.40;;;;;;5030786;28;20630;-71
2021/09/25 05:53:10;;;;;;;1.43;1.33;;;16.40;85.20;;;;;;5013853;28;20301;-71
2021/09/25 05:55:37;;;;;;;1.00;1.00;;;16.50;85.00;;;;;;5030462;28;20846;-71
2021/09/25 05:58:04;;;;;;;1.13;1.03;;;16.60;84.90;;;;;;5030238;28;20265;-71
2021/09/25 06:00:31;;;;;;;4.03;2.47;;;16.80;84.90;;;;;;5019416;28;20237;-71
2021/09/25 06:03:01;;;;;;;1.57;1.37;;;16.90;84.60;;;;;;5018286;28;20242;-71
2021/09/25 06:05:31;;;;;;;4.90;2.20;;;17.00;84.40;;;;;;5023002;28;20219;-72
2021/09/25 06:08:01;;;;;;;2.93;1.97;;;17.10;84.20;;;;;;5021366;28;20230;-71
2021/09/25 06:10:28;;;;;;;2.07;1.70;;;17.20;84.10;;;;;;5021360;28;20270;-71
2021/09/25 06:12:55;;;;;;;2.93;0.70;;;17.30;83.90;;;;;;5023540;28;20219;-71
2021/09/25 06:15:23;;;;;;;4.47;2.20;;;17.40;83.70;;;;;;5022010;28;20219;-71
2021/09/25 06:17:50;;;;;;;0.97;0.97;;;17.50;83.60;;;;;;5021461;28;20212;-71
2021/09/25 06:20:17;;;;;;;4.10;2.07;;;17.50;84.00;;;;;;5026291;28;20635;-71
2021/09/25 06:22:44;;;;;;;1.73;1.53;;;17.70;83.20;;;;;;5027382;28;20211;-71
2021/09/25 06:25:11;;;;;;;1.43;1.23;;;17.80;82.90;;;;;;5016128;28;20226;-71
2021/09/25 06:27:39;;;;;;;1.30;1.27;;;17.90;82.50;;;;;;5016141;28;20234;-71
2021/09/25 06:30:07;;;;;;;1.37;1.27;;;18.00;82.20;;;;;;5015746;28;20298;-71
2021/09/25 06:32:34;;;;;;;0.80;0.53;;;18.20;82.00;;;;;;5018694;28;20215;-71
2021/09/25 06:35:03;;;;;;;2.03;1.93;;;18.30;81.90;;;;;;5015267;28;20216;-71
2021/09/25 06:37:30;;;;;;;1.80;1.63;;;18.40;81.70;;;;;;5026280;28;20226;-71
2021/09/25 06:39:57;;;;;;;3.77;2.47;;;18.50;81.40;;;;;;5018541;28;20211;-71
2021/09/25 06:42:24;;;;;;;4.57;3.33;;;18.60;81.20;;;;;;5024167;28;20219;-71
2021/09/25 06:44:51;;;;;;;2.10;1.03;;;18.80;81.10;;;;;;5028206;28;20242;-71
2021/09/25 06:47:18;;;;;;;1.70;1.60;;;18.90;80.90;;;;;;5023815;28;20759;-71
2021/09/25 06:49:45;;;;;;;2.53;2.33;;;19.00;80.70;;;;;;5025964;28;20234;-71
2021/09/25 06:52:12;;;;;;;2.37;1.90;;;19.10;80.60;;;;;;5026024;28;20623;-71
2021/09/25 06:54:39;;;;;;;1.50;1.50;;;19.20;80.50;;;;;;5024369;28;20613;-71
2021/09/25 06:57:06;;;;;;;1.20;1.20;;;19.30;80.40;;;;;;5024350;28;20613;-71
2021/09/25 06:59:33;;;;;;;2.70;1.30;;;19.40;80.20;;;;;;5014024;28;20207;-71
2021/09/25 07:02:01;;;;;;;3.70;3.40;;;19.50;80.00;;;;;;5011535;28;20525;-71
2021/09/25 07:04:28;;;;;;;2.30;1.83;;;19.60;80.00;;;;;;5026688;28;20238;-72
2021/09/25 07:06:55;;;;;;;5.13;2.67;;;19.70;80.00;;;;;;5023996;28;20240;-71
2021/09/25 07:09:22;;;;;;;10.17;2.33;;;19.80;79.90;;;;;;5007763;28;20216;-71
2021/09/25 07:11:50;;;;;;;6.10;1.97;;;19.90;79.70;;;;;;5026390;28;20458;-72
2021/09/25 07:14:17;;;;;;;3.63;3.33;;;20.00;79.60;;;;;;5008274;28;20230;-71
2021/09/25 07:16:45;;;;;;;17.97;3.93;;;20.20;79.40;;;;;;5006214;28;20220;-71
2021/09/25 07:19:12;;;;;;;4.10;2.70;;;20.30;79.30;;;;;;5025441;28;20662;-71
2021/09/25 07:21:39;;;;;;;8.40;4.07;;;20.40;79.20;;;;;;5013876;28;20278;-71
2021/09/25 07:24:06;;;;;;;4.57;3.33;;;20.50;79.10;;;;;;5025025;28;20555;-71
2021/09/25 07:26:33;;;;;;;4.73;1.97;;;20.70;78.70;;;;;;5025322;28;20228;-71
2021/09/25 07:29:00;;;;;;;5.83;2.70;;;20.70;78.40;;;;;;5025542;28;20538;-71
2021/09/25 07:31:27;;;;;;;10.37;2.37;;;20.80;78.50;;;;;;5025697;28;20284;-71
2021/09/25 07:33:54;;;;;;;3.40;2.50;;;20.80;78.60;;;;;;5013821;28;20636;-71
2021/09/25 07:36:24;;;;;;;2.90;2.70;;;20.90;78.60;;;;;;5029322;28;20235;-71
2021/09/25 07:38:51;;;;;;;3.13;2.83;;;21.10;78.50;;;;;;5023882;28;20225;-71
2021/09/25 07:41:23;;;;;;;2.83;2.30;;;21.20;78.00;;;;;;5023366;28;20227;-72
2021/09/25 07:43:51;;;;;;;2.93;2.47;;;21.40;77.40;;;;;;5023538;28;20220;-72
2021/09/25 07:46:18;;;;;;;4.60;3.00;;;21.50;76.70;;;;;;5025000;28;20253;-72
2021/09/25 07:48:45;;;;;;;3.00;2.77;;;21.60;76.60;;;;;;5024935;28;20223;-71
2021/09/25 07:51:12;;;;;;;2.23;2.13;;;21.80;76.10;;;;;;5022384;28;20243;-71
2021/09/25 07:53:39;;;;;;;6.43;3.40;;;21.90;75.80;;;;;;5023009;28;20216;-71
2021/09/25 07:56:06;;;;;;;4.77;4.40;;;22.00;75.70;;;;;;5022908;28;20211;-71
2021/09/25 07:58:33;;;;;;;2.43;1.90;;;22.20;75.40;;;;;;5015663;28;20211;-71
2021/09/25 08:01:00;;;;;;;4.33;3.90;;;22.40;74.70;;;;;;5014981;28;20602;-71
2021/09/25 08:03:27;;;;;;;2.30;2.07;;;22.60;74.20;;;;;;5022199;28;20273;-71
2021/09/25 08:05:55;;;;;;;3.70;2.90;;;22.70;74.00;;;;;;5024161;28;20242;-71
2021/09/25 08:08:22;;;;;;;3.67;3.37;;;22.90;74.00;;;;;;5016760;28;20215;-71
2021/09/25 08:10:49;;;;;;;3.83;2.53;;;23.10;73.50;;;;;;5013557;28;20219;-71
2021/09/25 08:13:16;;;;;;;6.53;2.63;;;23.20;72.90;;;;;;5013999;28;20215;-71
2021/09/25 08:15:48;;;;;;;2.40;2.23;;;23.40;72.50;;;;;;5013202;28;20469;-71
2021/09/25 08:18:15;;;;;;;4.80;2.57;;;23.50;71.50;;;;;;5013723;28;20223;-71
2021/09/25 08:20:43;;;;;;;1.57;1.47;;;23.50;71.60;;;;;;5013459;28;20212;-71
2021/09/25 08:23:10;;;;;;;3.27;3.07;;;23.60;71.20;;;;;;5015224;28;20219;-71
2021/09/25 08:25:37;;;;;;;3.30;2.40;;;23.70;71.00;;;;;;5008765;28;20691;-71
2021/09/25 08:28:04;;;;;;;2.00;1.10;;;23.80;70.50;;;;;;5022513;28;20223;-71
2021/09/25 08:30:32;;;;;;;1.70;1.60;;;23.80;70.70;;;;;;5021349;28;20584;-71
2021/09/25 08:32:59;;;;;;;2.00;1.30;;;23.90;70.30;;;;;;5022650;28;20235;-71
2021/09/25 08:35:28;;;;;;;3.87;3.30;;;24.00;70.10;;;;;;5023003;28;20215;-71
2021/09/25 08:37:55;;;;;;;3.13;2.83;;;24.10;69.40;;;;;;5022271;28;20286;-71
2021/09/25 08:40:22;;;;;;;3.80;3.50;;;24.10;69.60;;;;;;5023434;28;20273;-71
2021/09/25 08:42:51;;;;;;;3.33;3.13;;;24.20;69.20;;;;;;5024824;28;20223;-71
2021/09/25 08:45:20;;;;;;;2.20;1.73;;;24.20;69.20;;;;;;5021689;28;20215;-71
2021/09/25 08:47:54;;;;;;;3.27;1.67;;;24.30;69.00;;;;;;5023195;28;20246;-71
2021/09/25 08:50:21;;;;;;;2.33;2.13;;;24.40;68.90;;;;;;5032533;28;20491;-71
2021/09/25 08:52:48;;;;;;;1.00;1.00;;;24.50;68.10;;;;;;5028896;28;20716;-71
2021/09/25 08:55:16;;;;;;;1.97;1.83;;;24.40;67.80;;;;;;5028801;28;20238;-71
2021/09/25 08:57:43;;;;;;;1.00;1.00;;;24.50;68.50;;;;;;5031935;28;20276;-72
2021/09/25 09:00:25;;;;;;;2.20;1.73;;;24.70;68.30;;;;;;5031592;28;20655;-71
2021/09/25 09:02:53;;;;;;;2.60;2.40;;;25.00;66.60;;;;;;5031578;28;20613;-71
2021/09/25 09:05:32;;;;;;;1.43;1.33;;;25.00;66.80;;;;;;5032276;28;20230;-71
2021/09/25 09:08:02;;;;;;;2.60;2.40;;;25.20;66.20;;;;;;5027665;28;20214;-71
2021/09/25 09:10:34;;;;;;;3.43;1.23;;;25.30;65.40;;;;;;5014760;28;20215;-71
2021/09/25 09:13:03;;;;;;;7.57;2.67;;;25.40;65.90;;;;;;5029056;28;20234;-71
2021/09/25 09:15:35;;;;;;;13.30;1.57;;;25.60;65.90;;;;;;5027025;28;20221;-71
2021/09/25 09:18:03;;;;;;;3.63;2.90;;;25.90;65.60;;;;;;5031327;28;20218;-72
2021/09/25 09:20:31;;;;;;;2.30;2.20;;;26.20;65.00;;;;;;5031519;28;20269;-71
2021/09/25 09:23:33;;;;;;;1.70;1.23;;;26.30;64.00;;;;;;5012584;28;20211;-71
2021/09/25 09:26:00;;;;;;;1.77;1.67;;;26.40;63.90;;;;;;5016069;28;20226;-71
2021/09/25 09:28:30;;;;;;;1.17;1.07;;;26.50;63.90;;;;;;5015566;28;20227;-71
2021/09/25 09:31:00;;;;;;;1.07;1.07;;;26.60;63.60;;;;;;5031298;28;20218;-71
2021/09/25 09:33:28;;;;;;;2.17;1.77;;;26.70;63.20;;;;;;5031676;28;20226;-72
2021/09/25 09:36:09;;;;;;;0.97;0.97;;;26.80;62.90;;;;;;5030992;28;20268;-72
2021/09/25 09:39:11;;;;;;;0.50;0.50;;;26.80;63.00;;;;;;5031256;28;20297;-71
2021/09/25 09:41:44;;;;;;;1.40;1.30;;;26.90;63.10;;;;;;5028900;28;20590;-71
2021/09/25 09:44:17;;;;;;;0.57;0.57;;;26.90;62.90;;;;;;5027074;28;20204;-71
2021/09/25 09:46:49;;;;;;;2.80;1.23;;;27.00;62.90;;;;;;5017181;28;20307;-71
2021/09/25 09:49:19;;;;;;;0.30;0.30;;;27.20;62.80;;;;;;5041221;28;20215;-71
2021/09/25 09:51:58;;;;;;;0.73;0.60;;;27.40;62.30;;;;;;5039784;28;20288;-71
2021/09/25 09:54:28;;;;;;;0.90;0.90;;;27.60;61.00;;;;;;5027146;28;20615;-71
2021/09/25 09:57:11;;;;;;;0.67;0.67;;;27.60;60.50;;;;;;5040938;28;20277;-71
2021/09/25 09:59:41;;;;;;;0.47;0.47;;;27.50;60.90;;;;;;5040094;28;20682;-71
2021/09/25 10:02:08;;;;;;;0.30;0.30;;;27.40;61.30;;;;;;5039921;28;20211;-71
2021/09/25 10:04:37;;;;;;;1.17;0.80;;;27.40;60.60;;;;;;5039922;28;20219;-71
2021/09/25 10:07:05;;;;;;;0.43;0.43;;;27.30;60.00;;;;;;5039637;28;20222;-71
2021/09/25 10:09:34;;;;;;;1.33;0.83;;;27.10;60.50;;;;;;5042503;28;20218;-71
2021/09/25 10:12:04;;;;;;;0.57;0.57;;;27.00;61.00;;;;;;5020458;28;20251;-71
2021/09/25 10:14:33;;;;;;;0.63;0.63;;;27.00;61.20;;;;;;5042825;28;20213;-71
2021/09/25 10:17:03;;;;;;;0.43;0.43;;;27.00;60.70;;;;;;5042125;28;20213;-71
2021/09/25 10:19:32;;;;;;;1.53;1.43;;;27.20;60.60;;;;;;5040569;28;20215;-71
2021/09/25 10:22:12;;;;;;;0.43;0.43;;;27.40;60.30;;;;;;5039095;28;20213;-71
2021/09/25 10:24:52;;;;;;;0.50;0.50;;;27.60;59.60;;;;;;5039064;28;20218;-71
2021/09/25 10:27:22;;;;;;;0.20;0.20;;;27.90;59.10;;;;;;5037256;28;20594;-71
2021/09/25 10:29:51;;;;;;;0.77;0.60;;;28.10;58.60;;;;;;5042234;28;20788;-71
2021/09/25 10:32:18;;;;;;;1.70;1.47;;;28.40;58.20;;;;;;5037629;28;20222;-71
2021/09/25 10:34:55;;;;;;;0.43;0.43;;;28.50;57.80;;;;;;5042409;28;20646;-71
2021/09/25 10:37:23;;;;;;;0.90;0.50;;;28.60;57.70;;;;;;5037619;28;20635;-71
2021/09/25 10:39:58;;;;;;;0.70;0.70;;;28.60;57.60;;;;;;5040763;28;20206;-71
2021/09/25 10:42:40;;;;;;;0.67;0.57;;;28.70;57.50;;;;;;5041105;28;20219;-71
2021/09/25 10:45:28;;;;;;;0.30;0.30;;;28.80;57.00;;;;;;5042424;28;20301;-72
2021/09/25 10:48:16;;;;;;;0.73;0.63;;;28.90;56.40;;;;;;5022244;28;20459;-71
2021/09/25 10:50:49;;;;;;;1.27;0.70;;;28.90;55.30;;;;;;5038493;28;20215;-71
2021/09/25 10:53:18;;;;;;;0.30;0.30;;;28.80;55.50;;;;;;5036358;28;20242;-72
2021/09/25 10:55:46;;;;;;;2.17;0.93;;;28.80;55.80;;;;;;5041768;28;20222;-72
2021/09/25 10:58:26;;;;;;;1.17;0.97;;;28.90;55.80;;;;;;5040952;28;20230;-72
2021/09/25 11:01:11;;;;;;;1.53;1.43;;;29.00;55.20;;;;;;5035202;28;20218;-72
2021/09/25 11:03:41;;;;;;;0.70;0.70;;;28.90;55.80;;;;;;5038846;28;20214;-71
2021/09/25 11:06:18;;;;;;;2.17;1.87;;;28.80;55.40;;;;;;5044658;28;20228;-71
2021/09/25 11:08:54;;;;;;;7.13;0.63;;;28.80;55.10;;;;;;5036747;28;20214;-71
2021/09/25 11:11:42;;;;;;;3.70;1.20;;;28.80;55.10;;;;;;5043769;28;20304;-71
2021/09/25 11:14:29;;;;;;;1.37;0.63;;;28.80;54.90;;;;;;5044806;28;20301;-71
2021/09/25 11:17:00;;;;;;;1.03;0.93;;;28.80;55.00;;;;;;5039090;28;20214;-71
2021/09/25 11:19:28;;;;;;;0.77;0.77;;;28.90;55.00;;;;;;5043433;28;20211;-72
2021/09/25 11:22:19;;;;;;;0.43;0.43;;;29.10;54.80;;;;;;5043071;28;20218;-72
2021/09/25 11:24:50;;;;;;;1.20;1.10;;;29.30;52.90;;;;;;5044427;28;20218;-72
2021/09/25 11:27:20;;;;;;;1.37;1.33;;;29.30;52.60;;;;;;5029518;28;20202;-72
2021/09/25 11:30:14;;;;;;;0.47;0.47;;;29.40;52.30;;;;;;5042937;28;20277;-71
2021/09/25 11:32:43;;;;;;;2.30;0.87;;;29.50;52.50;;;;;;5043861;28;20235;-72
2021/09/25 11:35:12;;;;;;;1.33;1.23;;;29.50;52.40;;;;;;5025478;28;20222;-72
2021/09/25 11:37:55;;;;;;;1.50;0.80;;;29.50;52.60;;;;;;5043923;28;20207;-72
2021/09/25 11:40:29;;;;;;;0.77;0.77;;;29.50;52.80;;;;;;5043423;28;20207;-72
2021/09/25 11:43:08;;;;;;;2.93;0.80;;;29.40;52.50;;;;;;5025257;28;20285;-72
2021/09/25 11:45:42;;;;;;;0.43;0.43;;;29.40;52.10;;;;;;5042041;28;20210;-72
2021/09/25 11:48:13;;;;;;;0.83;0.83;;;29.50;52.50;;;;;;5044306;28;20246;-72
2021/09/25 11:50:43;;;;;;;1.90;0.77;;;29.60;52.50;;;;;;5033475;28;20297;-72
2021/09/25 11:53:13;;;;;;;2.73;2.17;;;29.70;51.10;;;;;;5034805;28;20410;-72
2021/09/25 11:55:41;;;;;;;0.57;0.57;;;29.70;51.20;;;;;;5033101;28;20556;-71
2021/09/25 11:58:13;;;;;;;1.70;0.93;;;29.70;50.70;;;;;;5034268;28;20207;-71
2021/09/25 12:00:52;;;;;;;0.60;0.60;;;29.70;51.00;;;;;;5033363;28;20222;-71
2021/09/25 12:03:21;;;;;;;0.73;0.73;;;29.50;50.80;;;;;;5041982;28;20221;-71
2021/09/25 12:05:54;;;;;;;0.67;0.50;;;29.40;51.30;;;;;;5043011;28;20440;-71
2021/09/25 12:08:29;;;;;;;1.03;0.80;;;29.40;51.80;;;;;;5015698;28;20626;-71
2021/09/25 12:10:57;;;;;;;9.07;1.07;;;29.40;51.50;;;;;;5023824;28;20819;-71
2021/09/25 12:13:29;;;;;;;4.17;3.07;;;29.30;51.50;;;;;;5023377;28;20690;-71
2021/09/25 12:16:05;;;;;;;0.97;0.97;;;29.10;51.40;;;;;;5041170;28;20499;-71
2021/09/25 12:18:40;;;;;;;1.13;1.03;;;28.80;52.10;;;;;;5042491;28;20305;-72
2021/09/25 12:21:21;;;;;;;0.87;0.87;;;28.50;52.60;;;;;;5025005;28;20276;-72
2021/09/25 12:24:03;;;;;;;0.93;0.93;;;28.40;53.40;;;;;;5040663;28;20296;-72
2021/09/25 12:26:33;;;;;;;0.67;0.27;;;28.50;52.50;;;;;;5041566;28;20214;-73
2021/09/25 12:29:03;;;;;;;0.73;0.70;;;28.60;52.50;;;;;;5032302;28;20254;-72
2021/09/25 12:31:35;;;;;;;1.30;1.23;;;28.60;51.30;;;;;;5041294;28;20215;-72
2021/09/25 12:34:21;;;;;;;0.53;0.53;;;28.60;51.60;;;;;;5032066;28;20318;-72
2021/09/25 12:36:50;;;;;;;1.07;1.07;;;28.60;51.40;;;;;;5040961;28;20214;-72
2021/09/25 12:39:39;;;;;;;0.50;0.50;;;28.70;52.10;;;;;;5043298;28;20221;-72
2021/09/25 12:42:06;;;;;;;0.17;0.17;;;28.70;51.50;;;;;;5043264;28;20221;-72
2021/09/25 12:44:36;;;;;;;0.87;0.57;;;28.80;51.40;;;;;;5041386;28;20211;-71
2021/09/25 12:47:04;;;;;;;0.50;0.43;;;28.70;50.90;;;;;;5041642;28;20242;-71
2021/09/25 12:49:35;;;;;;;0.27;0.20;;;28.60;51.20;;;;;;5023549;28;20215;-71
2021/09/25 12:52:08;;;;;;;0.40;0.40;;;28.40;51.70;;;;;;5042170;28;20635;-71
2021/09/25 12:54:41;;;;;;;0.20;0.20;;;28.20;51.90;;;;;;5032376;28;20456;-71
2021/09/25 12:57:10;;;;;;;0.57;0.57;;;28.00;52.20;;;;;;5031973;28;20698;-71